Time;durP1;ratioP1;P1;durP2;ratioP2;P2;SDS_P1;SDS_P2;PMS_P1;PMS_P2;Temp;Humidity;BMP_temperature;BMP_pressure;BME280_temperature;BME280_humidity;BME280_pressure;Samples;Min_cycle;Max_cycle;Signal;HPM_P1;HPM_P2
2021/08/18 00:01:45;;;;;;;27.13;13.45;;;;;;;-139.48;100.00;61774.03;5092130;28;20519;-66
2021/08/18 00:04:29;;;;;;;21.95;13.20;;;;;;;-139.48;100.00;61774.03;5094398;28;20043;-66
2021/08/18 00:07:13;;;;;;;26.65;12.77;;;;;;;-139.48;100.00;61774.03;5096213;28;20043;-66
2021/08/18 00:09:57;;;;;;;26.50;12.43;;;;;;;-139.48;100.00;61774.03;5096465;28;20042;-66
2021/08/18 00:12:41;;;;;;;27.15;13.02;;;;;;;-139.48;100.00;61774.03;5095650;28;20086;-66
2021/08/18 00:15:25;;;;;;;25.63;12.35;;;;;;;-139.48;100.00;61774.03;5094931;28;20129;-65
2021/08/18 00:18:09;;;;;;;24.25;11.95;;;;;;;-139.48;100.00;61774.03;5095272;28;20161;-66
2021/08/18 00:20:53;;;;;;;24.90;12.93;;;;;;;-139.48;100.00;61774.03;5095208;28;20105;-66
2021/08/18 00:23:37;;;;;;;30.40;14.00;;;;;;;-139.48;100.00;61774.03;5095920;28;20065;-67
2021/08/18 00:26:26;;;;;;;23.60;12.45;;;;;;;-139.48;100.00;61774.03;5109582;28;20043;-66
2021/08/18 00:29:11;;;;;;;24.52;12.90;;;;;;;-139.48;100.00;61774.03;5096045;28;20043;-66
2021/08/18 00:31:54;;;;;;;28.45;13.45;;;;;;;-139.48;100.00;61774.03;5094780;28;20610;-66
2021/08/18 00:34:38;;;;;;;24.35;12.40;;;;;;;-139.48;100.00;61774.03;5096159;28;20051;-67
2021/08/18 00:37:22;;;;;;;29.48;14.45;;;;;;;-139.48;100.00;61774.03;5095584;28;20542;-66
2021/08/18 00:40:07;;;;;;;30.65;14.60;;;;;;;-139.48;100.00;61774.03;5095870;28;20136;-66
2021/08/18 00:42:51;;;;;;;26.75;14.02;;;;;;;-139.48;100.00;61774.03;5108946;28;20097;-66
2021/08/18 00:45:35;;;;;;;28.77;13.93;;;;;;;-139.48;100.00;61774.03;5094691;28;20082;-66
2021/08/18 00:48:18;;;;;;;26.65;14.10;;;;;;;-139.48;100.00;61774.03;5095441;28;20078;-65
2021/08/18 00:51:02;;;;;;;30.58;14.25;;;;;;;-139.48;100.00;61774.03;5095625;28;20098;-66
2021/08/18 00:53:47;;;;;;;35.67;14.57;;;;;;;-139.48;100.00;61774.03;5094527;28;20047;-67
2021/08/18 00:56:32;;;;;;;28.33;14.68;;;;;;;-139.48;100.00;61774.03;5094319;28;20043;-65
2021/08/18 00:59:16;;;;;;;28.17;15.30;;;;;;;-139.48;100.00;61774.03;5108897;28;20050;-66
2021/08/18 01:02:00;;;;;;;32.47;13.90;;;;;;;-139.48;100.00;61774.03;5095421;28;20136;-66
2021/08/18 01:04:44;;;;;;;26.80;14.65;;;;;;;-139.48;100.00;61774.03;5095065;28;20557;-67
2021/08/18 01:07:28;;;;;;;28.63;14.88;;;;;;;-139.48;100.00;61774.03;5108779;28;20229;-66
2021/08/18 01:10:13;;;;;;;28.90;14.48;;;;;;;-139.48;100.00;61774.03;5095005;28;20564;-66
2021/08/18 01:12:57;;;;;;;30.42;15.60;;;;;;;-139.48;100.00;61774.03;5095222;28;20047;-65
2021/08/18 01:15:41;;;;;;;30.80;15.02;;;;;;;-139.48;100.00;61774.03;5092774;28;20051;-66
2021/08/18 01:18:25;;;;;;;31.45;15.85;;;;;;;-139.48;100.00;61774.03;5094393;28;20512;-66
2021/08/18 01:21:09;;;;;;;30.17;13.57;;;;;;;-139.48;100.00;61774.03;5095043;28;20046;-66
2021/08/18 01:23:53;;;;;;;27.30;14.63;;;;;;;-139.48;100.00;61774.03;5094778;28;20051;-67
2021/08/18 01:26:38;;;;;;;26.92;14.50;;;;;;;-139.48;100.00;61774.03;5094926;28;20081;-66
2021/08/18 01:29:22;;;;;;;32.40;13.90;;;;;;;-139.48;100.00;61774.03;5108581;28;20552;-66
2021/08/18 01:32:06;;;;;;;27.88;14.68;;;;;;;-139.48;100.00;61774.03;5094881;28;20138;-65
2021/08/18 01:34:50;;;;;;;24.90;14.55;;;;;;;-139.48;100.00;61774.03;5108030;28;20046;-67
2021/08/18 01:37:34;;;;;;;27.23;14.75;;;;;;;-139.48;100.00;61774.03;5094717;28;20047;-67
2021/08/18 01:40:19;;;;;;;29.10;14.90;;;;;;;-139.48;100.00;61774.03;5107910;28;20051;-67
2021/08/18 01:43:04;;;;;;;32.67;15.02;;;;;;;-139.48;100.00;61774.03;5093484;28;20054;-66
2021/08/18 01:45:48;;;;;;;27.67;13.65;;;;;;;-139.48;100.00;61774.03;5093492;28;20055;-67
2021/08/18 01:48:33;;;;;;;28.60;14.73;;;;;;;-139.48;100.00;61774.03;5107969;28;20046;-66
2021/08/18 01:51:17;;;;;;;33.38;15.68;;;;;;;-139.48;100.00;61774.03;5093549;28;20424;-66
2021/08/18 01:54:00;;;;;;;25.90;13.82;;;;;;;-139.48;100.00;61774.03;5094359;28;20471;-67
2021/08/18 01:56:44;;;;;;;26.10;13.90;;;;;;;-139.48;100.00;61774.03;5078982;28;20409;-67
2021/08/18 01:59:28;;;;;;;25.75;14.88;;;;;;;-139.48;100.00;61774.03;5093260;28;20055;-67
2021/08/18 02:02:12;;;;;;;24.33;13.82;;;;;;;-139.48;100.00;61774.03;5094281;28;20078;-67
2021/08/18 02:04:56;;;;;;;27.15;13.70;;;;;;;-139.48;100.00;61774.03;5093041;28;20093;-67
2021/08/18 02:07:40;;;;;;;23.40;13.25;;;;;;;-139.48;100.00;61774.03;5107345;28;20124;-67
2021/08/18 02:10:27;;;;;;;23.85;12.85;;;;;;;-139.48;100.00;61774.03;5094146;28;20051;-66
2021/08/18 02:13:11;;;;;;;26.60;13.43;;;;;;;-139.48;100.00;61774.03;5093792;28;20139;-67
2021/08/18 02:15:55;;;;;;;24.35;12.07;;;;;;;-139.48;100.00;61774.03;5092632;28;20125;-67
2021/08/18 02:18:39;;;;;;;21.13;12.13;;;;;;;-139.48;100.00;61774.03;5092713;28;20151;-67
2021/08/18 02:21:23;;;;;;;19.65;11.77;;;;;;;-139.48;100.00;61774.03;5093679;28;20051;-67
2021/08/18 02:24:07;;;;;;;19.77;11.75;;;;;;;-139.48;100.00;61774.03;5092450;28;20047;-66
2021/08/18 02:26:51;;;;;;;;;;;;;;;-139.48;100.00;61774.03;5092001;28;20074;-67
2021/08/18 02:29:35;;;;;;;24.08;12.55;;;;;;;-139.48;100.00;61774.03;5092359;28;19919;-67
2021/08/18 02:32:19;;;;;;;24.10;13.13;;;;;;;-139.48;100.00;61774.03;5106189;28;20113;-66
2021/08/18 02:35:04;;;;;;;22.35;12.60;;;;;;;-139.48;100.00;61774.03;5091893;28;20043;-66
2021/08/18 02:37:48;;;;;;;23.02;12.57;;;;;;;-139.48;100.00;61774.03;5092866;28;20124;-67
2021/08/18 02:40:32;;;;;;;20.50;11.98;;;;;;;-139.48;100.00;61774.03;5091840;28;20051;-67
2021/08/18 02:43:16;;;;;;;24.58;12.32;;;;;;;-139.48;100.00;61774.03;5091844;28;20104;-66
2021/08/18 02:46:00;;;;;;;25.38;13.25;;;;;;;-139.48;100.00;61774.03;5092011;28;20546;-66
2021/08/18 02:48:44;;;;;;;28.15;12.48;;;;;;;-139.48;100.00;61774.03;5091762;28;20572;-67
2021/08/18 02:51:28;;;;;;;21.20;12.05;;;;;;;-139.48;100.00;61774.03;5091795;28;20090;-67
2021/08/18 02:54:12;;;;;;;23.88;12.57;;;;;;;-139.48;100.00;61774.03;5092372;28;20065;-66
2021/08/18 02:56:56;;;;;;;25.58;12.60;;;;;;;-139.48;100.00;61774.03;5091342;28;20101;-67
2021/08/18 02:59:40;;;;;;;26.08;13.07;;;;;;;-139.48;100.00;61774.03;5091390;28;20051;-67
2021/08/18 03:02:24;;;;;;;25.80;12.55;;;;;;;-139.48;100.00;61774.03;5091610;28;20051;-67
2021/08/18 03:05:10;;;;;;;26.48;13.60;;;;;;;-139.48;100.00;61774.03;5091200;28;20054;-67
2021/08/18 03:07:53;;;;;;;24.17;13.30;;;;;;;-139.48;100.00;61774.03;5092433;28;20101;-66
2021/08/18 03:10:37;;;;;;;23.55;12.75;;;;;;;-139.48;100.00;61774.03;5091571;28;20147;-67
2021/08/18 03:13:21;;;;;;;21.65;12.90;;;;;;;-139.48;100.00;61774.03;5091485;28;20047;-67
2021/08/18 03:16:05;;;;;;;22.90;12.00;;;;;;;-139.48;100.00;61774.03;5091078;28;20051;-66
2021/08/18 03:18:49;;;;;;;28.58;13.32;;;;;;;-139.48;100.00;61774.03;5092700;28;20051;-67
2021/08/18 03:21:33;;;;;;;23.35;12.93;;;;;;;-139.48;100.00;61774.03;5091461;28;20055;-67
2021/08/18 03:24:17;;;;;;;28.13;13.02;;;;;;;-139.48;100.00;61774.03;5054509;28;1077104;-67
2021/08/18 03:27:01;;;;;;;;;;;;;;;-139.48;100.00;61774.03;5093613;28;20074;-64
2021/08/18 03:29:45;;;;;;;29.55;13.30;;;;;;;-139.48;100.00;61774.03;5093492;28;19959;-66
2021/08/18 03:32:29;;;;;;;22.90;12.13;;;;;;;-139.48;100.00;61774.03;5093198;28;20523;-67
2021/08/18 03:35:13;;;;;;;24.92;12.98;;;;;;;-139.48;100.00;61774.03;5106369;28;20047;-67
2021/08/18 03:37:57;;;;;;;22.10;13.40;;;;;;;-139.48;100.00;61774.03;5092445;28;20090;-67
2021/08/18 03:40:41;;;;;;;23.15;12.85;;;;;;;-139.48;100.00;61774.03;5096244;28;20538;-67
2021/08/18 03:43:25;;;;;;;27.05;13.05;;;;;;;-139.48;100.00;61774.03;5096981;28;20100;-66
2021/08/18 03:46:09;;;;;;;27.15;11.85;;;;;;;-139.48;100.00;61774.03;5095946;28;20054;-67
2021/08/18 03:48:53;;;;;;;23.75;12.90;;;;;;;-139.48;100.00;61774.03;5096571;28;20070;-67
2021/08/18 03:51:37;;;;;;;29.40;13.20;;;;;;;-139.48;100.00;61774.03;5096789;28;20096;-65
2021/08/18 03:54:21;;;;;;;24.05;12.13;;;;;;;-139.48;100.00;61774.03;5095605;28;20054;-67
2021/08/18 03:57:04;;;;;;;21.20;12.82;;;;;;;-139.48;100.00;61774.03;5096334;28;20051;-66
2021/08/18 03:59:48;;;;;;;24.05;12.32;;;;;;;-139.48;100.00;61774.03;5096389;28;20058;-67
2021/08/18 04:02:32;;;;;;;23.05;12.52;;;;;;;-139.48;100.00;61774.03;5096876;28;20062;-67
2021/08/18 04:05:16;;;;;;;24.50;13.43;;;;;;;-139.48;100.00;61774.03;5095376;28;20046;-65
2021/08/18 04:08:01;;;;;;;26.38;13.10;;;;;;;-139.48;100.00;61774.03;5096242;28;20043;-66
2021/08/18 04:10:45;;;;;;;27.95;13.98;;;;;;;-139.48;100.00;61774.03;5096169;28;20047;-67
2021/08/18 04:13:29;;;;;;;29.08;13.63;;;;;;;-139.48;100.00;61774.03;5096141;28;20066;-67
2021/08/18 04:16:13;;;;;;;26.80;14.85;;;;;;;-139.48;100.00;61774.03;5095981;28;20096;-67
2021/08/18 04:18:57;;;;;;;27.88;14.98;;;;;;;-139.48;100.00;61774.03;5095024;28;20047;-66
2021/08/18 04:21:41;;;;;;;28.50;14.27;;;;;;;-139.48;100.00;61774.03;5096201;28;20101;-65
2021/08/18 04:24:25;;;;;;;27.52;14.75;;;;;;;-139.48;100.00;61774.03;5096039;28;20043;-67
2021/08/18 04:27:09;;;;;;;27.77;14.65;;;;;;;-139.48;100.00;61774.03;5109687;28;20048;-66
2021/08/18 04:29:52;;;;;;;26.65;15.07;;;;;;;-139.48;100.00;61774.03;5095099;28;20069;-67
2021/08/18 04:32:37;;;;;;;31.67;15.65;;;;;;;-139.48;100.00;61774.03;5109268;28;20463;-67
2021/08/18 04:35:21;;;;;;;28.05;15.82;;;;;;;-139.48;100.00;61774.03;5094875;28;20419;-67
2021/08/18 04:38:05;;;;;;;29.75;15.73;;;;;;;-139.48;100.00;61774.03;5094944;28;20043;-67
2021/08/18 04:40:49;;;;;;;28.55;15.38;;;;;;;-139.48;100.00;61774.03;5094550;28;20431;-67
2021/08/18 04:43:33;;;;;;;33.58;15.85;;;;;;;-139.48;100.00;61774.03;5094763;28;20101;-67
2021/08/18 04:46:17;;;;;;;34.63;16.40;;;;;;;-139.48;100.00;61774.03;5095810;28;20055;-67
2021/08/18 04:49:01;;;;;;;33.35;16.58;;;;;;;-139.48;100.00;61774.03;5094586;28;20138;-67
2021/08/18 04:51:45;;;;;;;30.42;15.93;;;;;;;-139.48;100.00;61774.03;5095396;28;20101;-66
2021/08/18 04:54:29;;;;;;;31.80;15.60;;;;;;;-139.48;100.00;61774.03;5094211;28;20086;-67
2021/08/18 04:57:13;;;;;;;30.80;15.65;;;;;;;-139.48;100.00;61774.03;5095492;28;20116;-66
2021/08/18 04:59:57;;;;;;;32.03;15.90;;;;;;;-139.48;100.00;61774.03;5095353;28;20180;-67
2021/08/18 05:02:41;;;;;;;33.80;16.27;;;;;;;-139.48;100.00;61774.03;5094189;28;20416;-66
2021/08/18 05:05:25;;;;;;;32.15;15.95;;;;;;;-139.48;100.00;61774.03;5094372;28;20051;-67
2021/08/18 05:08:09;;;;;;;30.50;16.98;;;;;;;-139.48;100.00;61774.03;5094240;28;20081;-67
2021/08/18 05:10:53;;;;;;;;;;;;;;;-139.48;100.00;61774.03;5094734;28;20119;-66
2021/08/18 05:13:37;;;;;;;35.40;15.60;;;;;;;-139.48;100.00;61774.03;5095327;28;19918;-67
2021/08/18 05:16:21;;;;;;;30.50;16.08;;;;;;;-139.48;100.00;61774.03;5094860;28;20043;-67
2021/08/18 05:19:05;;;;;;;29.17;14.65;;;;;;;-139.48;100.00;61774.03;5095159;28;20054;-67
2021/08/18 05:21:49;;;;;;;26.00;15.27;;;;;;;-139.48;100.00;61774.03;5095076;28;20055;-67
2021/08/18 05:24:32;;;;;;;28.60;15.15;;;;;;;-139.48;100.00;61774.03;5095101;28;20166;-69
2021/08/18 05:27:17;;;;;;;28.85;15.00;;;;;;;-139.48;100.00;61774.03;5094726;28;20051;-67
2021/08/18 05:30:01;;;;;;;29.70;14.48;;;;;;;-139.48;100.00;61774.03;5093951;28;20562;-66
2021/08/18 05:32:45;;;;;;;29.55;14.75;;;;;;;-139.48;100.00;61774.03;5093836;28;20557;-67
2021/08/18 05:35:29;;;;;;;27.70;13.75;;;;;;;-139.48;100.00;61774.03;5093748;28;20055;-67
2021/08/18 05:38:13;;;;;;;29.45;14.77;;;;;;;-139.48;100.00;61774.03;5093487;28;20043;-67
2021/08/18 05:40:57;;;;;;;24.92;13.57;;;;;;;-139.48;100.00;61774.03;5094768;28;20113;-67
2021/08/18 05:43:41;;;;;;;26.08;14.30;;;;;;;-139.48;100.00;61774.03;5093582;28;20101;-66
2021/08/18 05:46:25;;;;;;;26.13;13.38;;;;;;;-139.48;100.00;61774.03;5094602;28;20046;-64
2021/08/18 05:49:09;;;;;;;23.67;12.27;;;;;;;-139.48;100.00;61774.03;5094286;28;20055;-67
2021/08/18 05:51:52;;;;;;;22.60;12.60;;;;;;;-139.48;100.00;61774.03;5093527;28;20051;-67
2021/08/18 05:54:37;;;;;;;27.83;13.38;;;;;;;-139.48;100.00;61774.03;5094138;28;20047;-67
2021/08/18 05:57:21;;;;;;;18.30;10.50;;;;;;;-139.48;100.00;61774.03;5094051;28;20043;-67
2021/08/18 06:00:06;;;;;;;20.67;12.38;;;;;;;-139.48;100.00;61774.03;5093636;28;20093;-66
2021/08/18 06:02:50;;;;;;;20.85;11.40;;;;;;;-139.48;100.00;61774.03;5093183;28;20078;-66
2021/08/18 06:05:36;;;;;;;23.05;11.20;;;;;;;-139.48;100.00;61774.03;5093216;28;20558;-67
2021/08/18 06:08:20;;;;;;;17.90;10.05;;;;;;;-139.48;100.00;61774.03;5094158;28;20400;-67
2021/08/18 06:11:04;;;;;;;19.33;9.82;;;;;;;-139.48;100.00;61774.03;5094167;28;20051;-67
2021/08/18 06:13:48;;;;;;;18.23;10.15;;;;;;;-139.48;100.00;61774.03;5079015;28;20051;-66
2021/08/18 06:16:32;;;;;;;17.25;10.38;;;;;;;-139.48;100.00;61774.03;5093833;28;20043;-66
2021/08/18 06:19:16;;;;;;;17.80;10.75;;;;;;;-139.48;100.00;61774.03;5094016;28;20106;-67
2021/08/18 06:22:01;;;;;;;15.65;9.45;;;;;;;-139.48;100.00;61774.03;5093878;28;20462;-66
2021/08/18 06:24:49;;;;;;;18.27;10.00;;;;;;;-139.48;100.00;61774.03;5092866;28;20051;-66
2021/08/18 06:27:40;;;;;;;15.25;9.23;;;;;;;-139.48;100.00;61774.03;5107303;28;20127;-67
2021/08/18 06:30:24;;;;;;;15.20;9.68;;;;;;;-139.48;100.00;61774.03;5092602;28;20046;-67
2021/08/18 06:33:08;;;;;;;12.77;8.85;;;;;;;-139.48;100.00;61774.03;5092670;28;20051;-67
2021/08/18 06:35:53;;;;;;;15.60;9.43;;;;;;;-139.48;100.00;61774.03;5078251;28;20558;-66
2021/08/18 06:38:37;;;;;;;13.18;8.68;;;;;;;-139.48;100.00;61774.03;5092402;28;20082;-67
2021/08/18 06:41:21;;;;;;;16.08;9.32;;;;;;;-139.48;100.00;61774.03;5093384;28;20042;-67
2021/08/18 06:44:04;;;;;;;;;;;;;;;-139.48;100.00;61774.03;5092665;28;20077;-66
2021/08/18 06:46:49;;;;;;;16.20;9.23;;;;;;;-139.48;100.00;61774.03;5092349;28;20319;-66
2021/08/18 06:49:33;;;;;;;14.32;8.77;;;;;;;-139.48;100.00;61774.03;5078542;28;20385;-67
2021/08/18 06:52:17;;;;;;;15.10;8.25;;;;;;;-139.48;100.00;61774.03;5092337;28;20062;-67
2021/08/18 06:55:01;;;;;;;11.57;7.88;;;;;;;-139.48;100.00;61774.03;5078012;28;20090;-67
2021/08/18 06:57:46;;;;;;;12.90;7.88;;;;;;;-139.48;100.00;61774.03;5093408;28;20067;-67
2021/08/18 07:00:30;;;;;;;13.25;7.55;;;;;;;-139.48;100.00;61774.03;5093308;28;20051;-65
2021/08/18 07:03:17;;;;;;;15.52;7.85;;;;;;;-139.48;100.00;61774.03;5078468;28;20165;-67
2021/08/18 07:06:01;;;;;;;14.18;8.13;;;;;;;-139.48;100.00;61774.03;5093286;28;20043;-66
2021/08/18 07:08:45;;;;;;;13.27;8.43;;;;;;;-139.48;100.00;61774.03;5093418;28;20051;-67
2021/08/18 07:11:29;;;;;;;11.68;7.18;;;;;;;-139.48;100.00;61774.03;5093106;28;20074;-67
2021/08/18 07:14:13;;;;;;;12.38;7.20;;;;;;;-139.48;100.00;61774.03;5094806;28;20412;-67
2021/08/18 07:16:57;;;;;;;10.60;7.03;;;;;;;-139.48;100.00;61774.03;5097228;28;20181;-66
2021/08/18 07:19:41;;;;;;;9.60;7.00;;;;;;;-139.48;100.00;61774.03;5097737;28;20047;-67
2021/08/18 07:22:25;;;;;;;;;;;;;;;-139.48;100.00;61774.03;5096512;28;20075;-67
2021/08/18 07:25:11;;;;;;;11.63;7.30;;;;;;;-139.48;100.00;61774.03;5095935;28;19961;-66
2021/08/18 07:27:55;;;;;;;11.38;6.70;;;;;;;-139.48;100.00;61774.03;5097213;28;20125;-66
2021/08/18 07:30:40;;;;;;;9.40;6.50;;;;;;;-139.48;100.00;61774.03;5096404;28;20071;-66
2021/08/18 07:33:24;;;;;;;12.10;6.32;;;;;;;-139.48;100.00;61774.03;5097074;28;20104;-66
2021/08/18 07:36:08;;;;;;;10.10;6.20;;;;;;;-139.48;100.00;61774.03;5096873;28;20495;-66
2021/08/18 07:38:52;;;;;;;11.63;5.90;;;;;;;-139.48;100.00;61774.03;5095998;28;20519;-65
2021/08/18 07:41:36;;;;;;;10.43;5.60;;;;;;;-139.48;100.00;61774.03;5081866;28;20086;-67
2021/08/18 07:44:20;;;;;;;8.60;5.72;;;;;;;-139.48;100.00;61774.03;5095922;28;20066;-67
2021/08/18 07:47:04;;;;;;;8.63;5.47;;;;;;;-139.48;100.00;61774.03;5095918;28;20047;-66
2021/08/18 07:49:48;;;;;;;10.98;6.38;;;;;;;-139.48;100.00;61774.03;5081232;28;20059;-66
2021/08/18 07:52:32;;;;;;;6.53;5.55;;;;;;;-139.48;100.00;61774.03;5081707;28;20062;-66
2021/08/18 07:55:16;;;;;;;7.38;5.55;;;;;;;-139.48;100.00;61774.03;5095701;28;20511;-66
2021/08/18 07:58:00;;;;;;;8.10;5.22;;;;;;;-139.48;100.00;61774.03;5095553;28;20078;-67
2021/08/18 08:00:44;;;;;;;8.25;5.15;;;;;;;-139.48;100.00;61774.03;5096652;28;20130;-66
2021/08/18 08:03:27;;;;;;;7.30;5.20;;;;;;;-139.48;100.00;61774.03;5095888;28;20101;-67
2021/08/18 08:06:11;;;;;;;8.05;4.47;;;;;;;-139.48;100.00;61774.03;5095652;28;20560;-64
2021/08/18 08:08:55;;;;;;;7.50;4.57;;;;;;;-139.48;100.00;61774.03;5096236;28;20525;-64
2021/08/18 08:11:39;;;;;;;8.95;4.25;;;;;;;-139.48;100.00;61774.03;5096106;28;20070;-67
2021/08/18 08:14:23;;;;;;;6.28;4.00;;;;;;;-139.48;100.00;61774.03;5095548;28;20101;-66
2021/08/18 08:17:07;;;;;;;6.35;4.13;;;;;;;-139.48;100.00;61774.03;5095965;28;20098;-64
2021/08/18 08:19:51;;;;;;;4.93;4.35;;;;;;;-139.48;100.00;61774.03;5096263;28;20054;-66
2021/08/18 08:22:38;;;;;;;5.95;3.92;;;;;;;-139.48;100.00;61774.03;5081269;28;20500;-67
2021/08/18 08:25:21;;;;;;;5.15;3.63;;;;;;;-139.48;100.00;61774.03;5094474;28;20054;-64
2021/08/18 08:28:06;;;;;;;8.27;4.13;;;;;;;-139.48;100.00;61774.03;5080586;28;20050;-63
2021/08/18 08:30:51;;;;;;;6.28;4.13;;;;;;;-139.48;100.00;61774.03;5096061;28;20051;-66
2021/08/18 08:33:35;;;;;;;5.85;3.80;;;;;;;-139.48;100.00;61774.03;5094663;28;20087;-61
2021/08/18 08:36:19;;;;;;;;;;;;;;;-139.48;100.00;61774.03;5096314;28;20101;-64
2021/08/18 08:39:03;;;;;;;4.72;3.78;;;;;;;-139.48;100.00;61774.03;5094652;28;19958;-65
2021/08/18 08:41:49;;;;;;;5.60;4.35;;;;;;;-139.48;100.00;61774.03;5095515;28;20129;-67
2021/08/18 08:44:33;;;;;;;8.43;4.05;;;;;;;-139.48;100.00;61774.03;5094577;28;20047;-65
2021/08/18 08:47:18;;;;;;;5.97;4.30;;;;;;;-139.48;100.00;61774.03;5095653;28;20088;-63
2021/08/18 08:50:04;;;;;;;5.97;4.10;;;;;;;-139.48;100.00;61774.03;5094565;28;20048;-67
2021/08/18 08:52:48;;;;;;;7.32;4.28;;;;;;;-139.48;100.00;61774.03;5094346;28;20073;-65
2021/08/18 08:55:32;;;;;;;7.32;4.60;;;;;;;-139.48;100.00;61774.03;5080124;28;20479;-66
2021/08/18 08:58:16;;;;;;;6.18;4.70;;;;;;;-139.48;100.00;61774.03;5095752;28;20043;-66
2021/08/18 09:01:01;;;;;;;7.20;4.15;;;;;;;-139.48;100.00;61774.03;5095466;28;20519;-65
2021/08/18 09:03:46;;;;;;;7.43;4.85;;;;;;;-139.48;100.00;61774.03;5094260;28;20055;-67
2021/08/18 09:06:30;;;;;;;9.38;4.30;;;;;;;-139.48;100.00;61774.03;5094332;28;20408;-66
2021/08/18 09:09:14;;;;;;;6.05;3.90;;;;;;;-139.48;100.00;61774.03;5095003;28;20067;-66
2021/08/18 09:12:08;;;;;;;5.60;4.25;;;;;;;-139.48;100.00;61774.03;5079953;28;20093;-67
2021/08/18 09:14:52;;;;;;;;;;;;;;;-139.48;100.00;61774.03;5094498;28;20097;-67
2021/08/18 09:17:37;;;;;;;5.73;3.40;;;;;;;-139.48;100.00;61774.03;5095069;28;19923;-67
2021/08/18 09:20:23;;;;;;;3.85;3.10;;;;;;;-139.48;100.00;61774.03;5094037;28;20046;-64
2021/08/18 09:23:11;;;;;;;5.50;3.33;;;;;;;-139.48;100.00;61774.03;5093963;28;20132;-67
2021/08/18 09:25:54;;;;;;;6.45;3.85;;;;;;;-139.48;100.00;61774.03;5094514;28;20082;-66
2021/08/18 09:28:38;;;;;;;6.32;3.22;;;;;;;-139.48;100.00;61774.03;5093627;28;20054;-67
2021/08/18 09:31:25;;;;;;;6.22;3.75;;;;;;;-139.48;100.00;61774.03;5094035;28;20058;-66
2021/08/18 09:34:10;;;;;;;3.50;3.17;;;;;;;-139.48;100.00;61774.03;5079333;28;20128;-67
2021/08/18 09:37:09;;;;;;;5.18;3.58;;;;;;;-139.48;100.00;61774.03;5093893;28;20055;-67
2021/08/18 09:39:57;;;;;;;5.55;4.03;;;;;;;-139.48;100.00;61774.03;5094714;28;20047;-67
2021/08/18 09:42:41;;;;;;;6.38;3.90;;;;;;;-139.48;100.00;61774.03;5094570;28;20097;-67
2021/08/18 09:45:27;;;;;;;5.47;3.97;;;;;;;-139.48;100.00;61774.03;5079226;28;20046;-67
2021/08/18 09:48:11;;;;;;;5.22;4.05;;;;;;;-139.48;100.00;61774.03;5094843;28;20094;-65
2021/08/18 09:51:01;;;;;;;6.60;3.85;;;;;;;-139.48;100.00;61774.03;5093772;28;20042;-64
2021/08/18 09:53:45;;;;;;;7.40;3.58;;;;;;;-139.48;100.00;61774.03;5093186;28;20050;-66
2021/08/18 09:56:40;;;;;;;4.85;3.80;;;;;;;-139.48;100.00;61774.03;5078945;28;20047;-67
2021/08/18 09:59:24;;;;;;;5.28;2.90;;;;;;;-139.48;100.00;61774.03;5093063;28;20093;-66
2021/08/18 10:02:08;;;;;;;5.20;3.72;;;;;;;-139.48;100.00;61774.03;5079026;28;20043;-66
2021/08/18 10:04:53;;;;;;;4.18;3.15;;;;;;;-139.48;100.00;61774.03;5093366;28;20043;-67
2021/08/18 10:07:37;;;;;;;5.28;3.30;;;;;;;-139.48;100.00;61774.03;5094205;28;20047;-67
2021/08/18 10:10:21;;;;;;;3.63;2.97;;;;;;;-139.48;100.00;61774.03;5093879;28;20047;-67
2021/08/18 10:13:07;;;;;;;4.55;3.17;;;;;;;-139.48;100.00;61774.03;5093145;28;20051;-67
2021/08/18 10:15:52;;;;;;;6.55;3.95;;;;;;;-139.48;100.00;61774.03;5093175;28;20078;-66
2021/08/18 10:18:43;;;;;;;6.45;3.72;;;;;;;-139.48;100.00;61774.03;5093758;28;20417;-64
2021/08/18 10:21:30;;;;;;;6.15;3.67;;;;;;;-139.48;100.00;61774.03;5078957;28;20127;-64
2021/08/18 10:24:32;;;;;;;5.90;4.30;;;;;;;-139.48;100.00;61774.03;5078261;28;20128;-64
2021/08/18 10:27:46;;;;;;;9.45;5.50;;;;;;;-139.48;100.00;61774.03;5092691;28;20089;-64
2021/08/18 10:30:30;;;;;;;6.97;4.72;;;;;;;-139.48;100.00;61774.03;5078452;28;20085;-65
2021/08/18 10:33:51;;;;;;;5.88;4.10;;;;;;;-139.48;100.00;61774.03;5092954;28;20038;-64
2021/08/18 10:36:41;;;;;;;4.15;2.60;;;;;;;-139.48;100.00;61774.03;5093339;28;20214;-64
2021/08/18 10:39:51;;;;;;;5.38;2.75;;;;;;;-139.48;100.00;61774.03;5093663;28;20050;-63
2021/08/18 10:42:40;;;;;;;3.70;2.28;;;;;;;-139.48;100.00;61774.03;5092713;28;20177;-64
2021/08/18 10:45:26;;;;;;;2.90;2.15;;;;;;;-139.48;100.00;61774.03;5092433;28;20097;-64
2021/08/18 10:48:10;;;;;;;2.85;1.90;;;;;;;-139.48;100.00;61774.03;5093470;28;20047;-65
2021/08/18 10:50:55;;;;;;;1.67;1.58;;;;;;;-139.48;100.00;61774.03;5093522;28;20053;-65
2021/08/18 10:53:38;;;;;;;2.08;1.75;;;;;;;-139.48;100.00;61774.03;5092136;28;20550;-65
2021/08/18 10:56:56;;;;;;;2.75;1.80;;;;;;;-139.48;100.00;61774.03;5077862;28;20511;-65
2021/08/18 10:59:51;;;;;;;1.60;1.38;;;;;;;-139.48;100.00;61774.03;5092507;28;20089;-65
2021/08/18 11:02:52;;;;;;;1.38;1.17;;;;;;;-139.48;100.00;61774.03;5092384;28;20484;-66
2021/08/18 11:05:38;;;;;;;2.97;1.33;;;;;;;-139.48;100.00;61774.03;5093090;28;20061;-64
2021/08/18 11:08:40;;;;;;;2.50;1.52;;;;;;;-139.48;100.00;61774.03;5093103;28;20413;-64
2021/08/18 11:11:23;;;;;;;1.52;1.40;;;;;;;-139.48;100.00;61774.03;5092227;28;20169;-64
2021/08/18 11:14:09;;;;;;;3.83;1.50;;;;;;;-139.48;100.00;61774.03;5092847;28;20051;-64
2021/08/18 11:16:52;;;;;;;2.38;1.80;;;;;;;-139.48;100.00;61774.03;5092029;28;20512;-65
2021/08/18 11:19:36;;;;;;;;;;;;;;;-139.48;100.00;61774.03;5078114;28;20054;-64
2021/08/18 11:22:20;;;;;;;1.92;1.70;;;;;;;-139.48;100.00;61774.03;5091967;28;19935;-65
2021/08/18 11:25:04;;;;;;;;;;;;;;;-139.48;100.00;61774.03;5094010;28;20058;-64
2021/08/18 11:27:49;;;;;;;3.05;1.70;;;;;;;-139.48;100.00;61774.03;5093244;28;19938;-64
2021/08/18 11:30:33;;;;;;;2.50;1.60;;;;;;;-139.48;100.00;61774.03;5091977;28;20043;-63
2021/08/18 11:33:22;;;;;;;3.22;1.55;;;;;;;-139.48;100.00;61774.03;5091904;28;20051;-64
2021/08/18 11:36:14;;;;;;;2.17;1.60;;;;;;;-139.48;100.00;61774.03;5093181;28;20450;-64
2021/08/18 11:39:00;;;;;;;1.80;1.70;;;;;;;-139.48;100.00;61774.03;5091832;28;20097;-64
2021/08/18 11:41:47;;;;;;;1.90;1.80;;;;;;;-139.48;100.00;61774.03;5091960;28;20508;-63
2021/08/18 11:44:31;;;;;;;3.40;1.80;;;;;;;-139.48;100.00;61774.03;5091852;28;20121;-64
2021/08/18 11:47:17;;;;;;;2.28;1.92;;;;;;;-139.48;100.00;61774.03;5091911;28;20039;-64
2021/08/18 11:50:02;;;;;;;2.03;1.88;;;;;;;-139.48;100.00;61774.03;5091906;28;20074;-62
2021/08/18 11:52:50;;;;;;;1.63;1.50;;;;;;;-139.48;100.00;61774.03;5092021;28;20067;-64
2021/08/18 11:55:35;;;;;;;2.10;1.83;;;;;;;-139.48;100.00;61774.03;5091633;28;20126;-64
2021/08/18 11:58:27;;;;;;;1.67;1.58;;;;;;;-139.48;100.00;61774.03;5077566;28;20093;-64
2021/08/18 12:01:12;;;;;;;1.63;1.52;;;;;;;-139.48;100.00;61774.03;5081511;28;20089;-64
2021/08/18 12:03:57;;;;;;;3.65;2.10;;;;;;;-139.48;100.00;61774.03;5095390;28;20096;-64
2021/08/18 12:06:41;;;;;;;2.10;1.85;;;;;;;-139.48;100.00;61774.03;5095446;28;20035;-64
2021/08/18 12:09:25;;;;;;;2.22;1.98;;;;;;;-139.48;100.00;61774.03;5096723;28;20066;-64
2021/08/18 12:12:15;;;;;;;2.35;2.05;;;;;;;-139.48;100.00;61774.03;5095329;28;20120;-64
2021/08/18 12:15:11;;;;;;;3.53;2.03;;;;;;;-139.48;100.00;61774.03;5094982;28;20046;-64
2021/08/18 12:17:55;;;;;;;2.58;2.30;;;;;;;-139.48;100.00;61774.03;5096139;28;20135;-64
2021/08/18 12:20:39;;;;;;;2.60;2.20;;;;;;;-139.48;100.00;61774.03;5080569;28;20066;-63
2021/08/18 12:23:25;;;;;;;3.45;2.20;;;;;;;-139.48;100.00;61774.03;5080900;28;20097;-63